Time;durP1;ratioP1;P1;durP2;ratioP2;P2;SDS_P1;SDS_P2;PMS_P1;PMS_P2;Temp;Humidity;BMP_temperature;BMP_pressure;BME280_temperature;BME280_humidity;BME280_pressure;Samples;Min_cycle;Max_cycle;Signal;HPM_P1;HPM_P2
2022/06/27 00:00:14;;;;;;;;;;;19.00;99.90;;;;;;5110097;28;19919;-75
2022/06/27 00:02:40;;;;;;;;;;;19.00;99.90;;;;;;5126167;28;19920;-75
2022/06/27 00:05:05;;;;;;;;;;;19.00;99.90;;;;;;5119660;28;19927;-75
2022/06/27 00:07:31;;;;;;;;;;;19.00;99.90;;;;;;5123936;27;19994;-75
2022/06/27 00:09:56;;;;;;;;;;;19.00;99.90;;;;;;5113633;28;20356;-75
2022/06/27 00:12:22;;;;;;;;;;;19.00;99.90;;;;;;5113967;27;19946;-75
2022/06/27 00:14:48;;;;;;;;;;;19.00;99.90;;;;;;5112374;28;20408;-75
2022/06/27 00:17:13;;;;;;;;;;;19.00;99.90;;;;;;5127775;27;19972;-75
2022/06/27 00:19:39;;;;;;;;;;;19.00;99.90;;;;;;5113897;27;20392;-75
2022/06/27 00:22:04;;;;;;;;;;;19.00;99.90;;;;;;5114013;27;19928;-75
2022/06/27 00:24:30;;;;;;;;;;;19.00;99.90;;;;;;5122303;27;20339;-75
2022/06/27 00:26:56;;;;;;;;;;;19.00;99.90;;;;;;5118365;27;20006;-75
2022/06/27 00:29:21;;;;;;;;;;;19.00;99.90;;;;;;5113592;28;19919;-75
2022/06/27 00:31:47;;;;;;;;;;;19.00;99.90;;;;;;5114001;27;19931;-74
2022/06/27 00:34:12;;;;;;;;;;;18.90;99.90;;;;;;5114658;27;19919;-75
2022/06/27 00:36:38;;;;;;;;;;;18.90;99.90;;;;;;5113116;27;19963;-75
2022/06/27 00:39:04;;;;;;;;;;;18.80;99.90;;;;;;5113091;28;19973;-75
2022/06/27 00:41:29;;;;;;;;;;;18.80;99.90;;;;;;5126047;27;19919;-75
2022/06/27 00:43:55;;;;;;;;;;;18.70;99.90;;;;;;5112984;27;19942;-75
2022/06/27 00:46:20;;;;;;;;;;;18.70;99.90;;;;;;5114610;27;19973;-75
2022/06/27 00:48:46;;;;;;;;;;;18.70;99.90;;;;;;5113555;27;19923;-75
2022/06/27 00:51:11;;;;;;;;;;;18.80;99.90;;;;;;5114812;27;20289;-75
2022/06/27 00:53:37;;;;;;;;;;;18.70;99.90;;;;;;5113675;27;19924;-75
2022/06/27 00:56:03;;;;;;;;;;;18.70;99.90;;;;;;5114317;27;19927;-75
2022/06/27 00:58:29;;;;;;;;;;;18.70;99.90;;;;;;5114311;27;20015;-75
2022/06/27 01:00:54;;;;;;;;;;;18.70;99.90;;;;;;5114333;27;20372;-75
2022/06/27 01:03:20;;;;;;;;;;;18.60;99.90;;;;;;5113063;27;20029;-75
2022/06/27 01:05:51;;;;;;;;;;;18.60;99.90;;;;;;5113926;27;20007;-75
2022/06/27 01:08:18;;;;;;;;;;;18.60;99.90;;;;;;5113879;27;19924;-75
2022/06/27 01:10:44;;;;;;;;;;;18.60;99.90;;;;;;5114708;27;19926;-75
2022/06/27 01:13:09;;;;;;;;;;;18.50;99.90;;;;;;5113414;27;19920;-75
2022/06/27 01:15:35;;;;;;;;;;;18.50;99.90;;;;;;5114455;27;19920;-75
2022/06/27 01:18:00;;;;;;;;;;;18.50;99.90;;;;;;5132472;27;19923;-75
2022/06/27 01:20:26;;;;;;;;;;;18.50;99.90;;;;;;5131827;27;19923;-74
2022/06/27 01:22:51;;;;;;;;;;;18.50;99.90;;;;;;5132319;27;20401;-76
2022/06/27 01:25:19;;;;;;;;;;;18.50;99.90;;;;;;5131967;27;20323;-75
2022/06/27 01:27:45;;;;;;;;;;;18.50;99.90;;;;;;5123562;27;19924;-75
2022/06/27 01:30:10;;;;;;;;;;;18.50;99.90;;;;;;5126191;27;19992;-75
2022/06/27 01:32:37;;;;;;;;;;;18.50;99.90;;;;;;5132858;27;19930;-75
2022/06/27 01:35:03;;;;;;;;;;;18.50;99.90;;;;;;5116218;27;20344;-75
2022/06/27 01:37:29;;;;;;;;;;;18.50;99.90;;;;;;5112514;27;20018;-75
2022/06/27 01:39:56;;;;;;;;;;;18.50;99.90;;;;;;5112900;27;20010;-74
2022/06/27 01:42:22;;;;;;;;;;;18.50;99.90;;;;;;5112640;27;19981;-75
2022/06/27 01:44:48;;;;;;;;;;;18.50;99.90;;;;;;5112296;27;19927;-75
2022/06/27 01:47:14;;;;;;;;;;;18.50;99.90;;;;;;5112746;27;19919;-75
2022/06/27 01:49:39;;;;;;;;;;;18.50;99.90;;;;;;5113448;27;19919;-75
2022/06/27 01:52:06;;;;;;;;;;;18.40;99.90;;;;;;5111975;28;19927;-75
2022/06/27 01:54:32;;;;;;;;;;;18.40;99.90;;;;;;5111341;27;19980;-75
2022/06/27 01:56:58;;;;;;;;;;;18.40;99.90;;;;;;5122239;27;19927;-76
2022/06/27 01:59:24;;;;;;;;;;;18.30;99.90;;;;;;5125963;27;19945;-75
2022/06/27 02:01:50;;;;;;;;;;;18.30;99.90;;;;;;5118425;27;19919;-75
2022/06/27 02:04:16;;;;;;;;;;;18.30;99.90;;;;;;5120376;27;19927;-75
2022/06/27 02:06:43;;;;;;;;;;;18.30;99.90;;;;;;5118396;27;19919;-75
2022/06/27 02:09:09;;;;;;;;;;;18.30;99.90;;;;;;5119469;27;19919;-75
2022/06/27 02:11:35;;;;;;;;;;;18.30;99.90;;;;;;5111510;28;19963;-75
2022/06/27 02:14:01;;;;;;;;;;;18.30;99.90;;;;;;5115504;27;19958;-76
2022/06/27 02:16:27;;;;;;;;;;;18.20;99.90;;;;;;5127513;27;20441;-76
2022/06/27 02:18:53;;;;;;;;;;;18.20;99.90;;;;;;5118125;27;20297;-75
2022/06/27 02:21:24;;;;;;;;;;;18.20;99.90;;;;;;5131775;27;20005;-76
2022/06/27 02:23:50;;;;;;;;;;;18.10;99.90;;;;;;5129396;27;20057;-75
2022/06/27 02:26:16;;;;;;;;;;;18.10;99.90;;;;;;5110943;28;19919;-75
2022/06/27 02:28:42;;;;;;;;;;;18.10;99.90;;;;;;5123375;27;20820;-75
2022/06/27 02:31:08;;;;;;;;;;;18.10;99.90;;;;;;5128411;27;19919;-75
2022/06/27 02:33:35;;;;;;;;;;;18.10;99.90;;;;;;5130548;27;19919;-75
2022/06/27 02:36:01;;;;;;;;;;;18.00;99.90;;;;;;5125558;27;20355;-75
2022/06/27 02:38:27;;;;;;;;;;;18.10;99.90;;;;;;5130075;27;19972;-75
2022/06/27 02:40:54;;;;;;;;;;;18.00;99.90;;;;;;5124298;27;20323;-75
2022/06/27 02:43:20;;;;;;;;;;;18.00;99.90;;;;;;5124330;27;19919;-75
2022/06/27 02:45:46;;;;;;;;;;;18.00;99.90;;;;;;5116286;27;19933;-74
2022/06/27 02:48:14;;;;;;;;;;;18.00;99.90;;;;;;5130592;27;19929;-75
2022/06/27 02:50:41;;;;;;;;;;;18.00;99.90;;;;;;5113424;27;19927;-75
2022/06/27 02:53:09;;;;;;;;;;;18.10;99.90;;;;;;5110863;28;19970;-75
2022/06/27 02:55:38;;;;;;;;;;;18.00;99.90;;;;;;5109974;27;19974;-75
2022/06/27 02:58:12;;;;;;;;;;;18.00;99.90;;;;;;5110995;28;19920;-75
2022/06/27 03:00:39;;;;;;;;;;;18.00;99.90;;;;;;5111085;28;19924;-75
2022/06/27 03:03:06;;;;;;;;;;;18.00;99.90;;;;;;5110398;28;19920;-75
2022/06/27 03:05:32;;;;;;;;;;;18.00;99.90;;;;;;5130734;27;19976;-75
2022/06/27 03:07:58;;;;;;;;;;;17.90;99.90;;;;;;5124681;27;19919;-75
2022/06/27 03:10:23;;;;;;;;;;;17.90;99.90;;;;;;5119227;27;21511;-75
2022/06/27 03:12:49;;;;;;;;;;;17.90;99.90;;;;;;5112088;27;20443;-75
2022/06/27 03:15:14;;;;;;;;;;;17.90;99.90;;;;;;5122298;27;19919;-75
2022/06/27 03:17:40;;;;;;;;;;;17.90;99.90;;;;;;5124881;27;20289;-75
2022/06/27 03:20:06;;;;;;;;;;;17.80;99.90;;;;;;5117562;27;19965;-76
2022/06/27 03:22:31;;;;;;;;;;;17.80;99.90;;;;;;5110103;28;19919;-75
2022/06/27 03:24:57;;;;;;;;;;;17.80;99.90;;;;;;5123359;27;19992;-75
2022/06/27 03:27:22;;;;;;;;;;;17.70;99.90;;;;;;5116641;27;19919;-75
2022/06/27 03:29:48;;;;;;;;;;;17.70;99.90;;;;;;5120908;28;20400;-75
2022/06/27 03:32:13;;;;;;;;;;;17.70;99.90;;;;;;5109850;28;19942;-76
2022/06/27 03:34:39;;;;;;;;;;;17.70;99.90;;;;;;5109144;28;19920;-75
2022/06/27 03:37:04;;;;;;;;;;;17.70;99.90;;;;;;5109648;28;19924;-76
2022/06/27 03:39:30;;;;;;;;;;;17.60;99.90;;;;;;5119256;28;19919;-75
2022/06/27 03:41:55;;;;;;;;;;;17.60;99.90;;;;;;5129810;27;19919;-76
2022/06/27 03:44:21;;;;;;;;;;;17.60;99.90;;;;;;5127020;27;20025;-76
2022/06/27 03:46:47;;;;;;;;;;;17.60;99.90;;;;;;5134429;27;20014;-76
2022/06/27 03:51:56;;;;;;;;;;;17.60;99.90;;;;;;5122149;27;19924;-75
2022/06/27 03:54:22;;;;;;;;;;;17.60;99.90;;;;;;5127463;27;20033;-75
2022/06/27 03:56:47;;;;;;;;;;;17.60;99.90;;;;;;5125046;27;19979;-76
2022/06/27 03:59:13;;;;;;;;;;;17.60;99.90;;;;;;5133256;27;19924;-75
2022/06/27 04:01:39;;;;;;;;;;;17.60;99.90;;;;;;5133528;27;20415;-75
2022/06/27 04:04:05;;;;;;;;;;;17.60;99.90;;;;;;5119518;27;19924;-75
2022/06/27 04:06:30;;;;;;;;;;;17.60;99.90;;;;;;5122814;27;19920;-76
2022/06/27 04:08:56;;;;;;;;;;;17.60;99.90;;;;;;5130510;27;20692;-75
2022/06/27 04:11:21;;;;;;;;;;;17.60;99.90;;;;;;5133875;27;19919;-75
2022/06/27 04:13:47;;;;;;;;;;;17.50;99.90;;;;;;5119413;27;20277;-75
2022/06/27 04:16:12;;;;;;;;;;;17.50;99.90;;;;;;5133797;27;20296;-76
2022/06/27 04:18:38;;;;;;;;;;;17.50;99.90;;;;;;5119398;27;19919;-76
2022/06/27 04:21:03;;;;;;;;;;;17.50;99.90;;;;;;5124179;27;19920;-76
2022/06/27 04:23:29;;;;;;;;;;;17.50;99.90;;;;;;5116450;27;20426;-76
2022/06/27 04:25:55;;;;;;;;;;;17.60;99.90;;;;;;5129416;27;19923;-77
2022/06/27 04:28:20;;;;;;;;;;;17.50;99.90;;;;;;5133878;27;20011;-77
2022/06/27 04:30:46;;;;;;;;;;;17.50;99.90;;;;;;5129375;27;20028;-76
2022/06/27 04:33:12;;;;;;;;;;;17.50;99.90;;;;;;5113142;27;19920;-76
2022/06/27 04:35:40;;;;;;;;;;;17.50;99.90;;;;;;5126806;27;20341;-76
2022/06/27 04:38:06;;;;;;;;;;;17.40;99.90;;;;;;5113320;27;19923;-76
2022/06/27 04:40:32;;;;;;;;;;;17.50;99.90;;;;;;5113548;27;19923;-76
2022/06/27 04:42:59;;;;;;;;;;;17.40;99.90;;;;;;5121351;27;19920;-76
2022/06/27 04:45:25;;;;;;;;;;;17.40;99.90;;;;;;5131915;27;19926;-76
2022/06/27 04:47:51;;;;;;;;;;;17.40;99.90;;;;;;5121288;27;19923;-76
2022/06/27 04:50:18;;;;;;;;;;;17.40;99.90;;;;;;5131900;27;19958;-76
2022/06/27 04:52:44;;;;;;;;;;;17.40;99.90;;;;;;5121356;27;19927;-76
2022/06/27 04:55:10;;;;;;;;;;;17.40;99.90;;;;;;5119226;27;19920;-75
2022/06/27 04:57:37;;;;;;;;;;;17.30;99.90;;;;;;5133802;27;19927;-75
2022/06/27 05:00:04;;;;;;;;;;;17.40;99.90;;;;;;5124419;27;19927;-74
2022/06/27 05:02:30;;;;;;;;;;;17.40;99.90;;;;;;5113871;27;19985;-75
2022/06/27 05:04:55;;;;;;;;;;;17.40;99.90;;;;;;5132899;27;20402;-75
2022/06/27 05:07:23;;;;;;;;;;;17.40;99.90;;;;;;5132401;27;20326;-75
2022/06/27 05:09:52;;;;;;;;;;;17.40;99.90;;;;;;5132891;27;19930;-74
2022/06/27 05:12:18;;;;;;;;;;;17.40;99.90;;;;;;5129234;27;20385;-75
2022/06/27 05:14:44;;;;;;;;;;;17.40;99.90;;;;;;5120395;27;19919;-75
2022/06/27 05:17:10;;;;;;;;;;;17.40;99.90;;;;;;5119161;27;19920;-75
2022/06/27 05:19:35;;;;;;;;;;;17.40;99.90;;;;;;5132928;27;19919;-74
2022/06/27 05:22:01;;;;;;;;;;;17.30;99.90;;;;;;5131324;27;19926;-76
2022/06/27 05:24:26;;;;;;;;;;;17.40;99.90;;;;;;5121971;27;19927;-75
2022/06/27 05:26:53;;;;;;;;;;;17.40;99.90;;;;;;5127714;27;20331;-75
2022/06/27 05:29:19;;;;;;;;;;;17.40;99.90;;;;;;5130768;27;20007;-75
2022/06/27 05:31:45;;;;;;;;;;;17.50;99.90;;;;;;5129185;27;20002;-75
2022/06/27 05:34:10;;;;;;;;;;;17.50;99.90;;;;;;5120478;27;19975;-75
2022/06/27 05:36:37;;;;;;;;;;;17.60;99.90;;;;;;5118793;27;19920;-74
2022/06/27 05:39:02;;;;;;;;;;;17.70;99.90;;;;;;5123784;27;19975;-75
2022/06/27 05:41:28;;;;;;;;;;;17.80;99.90;;;;;;5113560;27;19973;-74
2022/06/27 05:43:54;;;;;;;;;;;17.90;99.90;;;;;;5132480;27;20547;-72
2022/06/27 05:46:20;;;;;;;;;;;17.90;99.90;;;;;;5130951;27;19964;-72
2022/06/27 05:48:46;;;;;;;;;;;17.90;99.90;;;;;;5111825;27;20447;-73
2022/06/27 05:51:12;;;;;;;;;;;17.90;99.90;;;;;;5125672;27;19923;-73
2022/06/27 05:53:38;;;;;;;;;;;18.00;99.90;;;;;;5117088;27;20006;-73
2022/06/27 05:56:05;;;;;;;;;;;18.10;99.90;;;;;;5111205;27;19928;-73
2022/06/27 05:58:31;;;;;;;;;;;18.20;99.90;;;;;;5112204;28;19920;-74
2022/06/27 06:00:57;;;;;;;;;;;18.20;99.90;;;;;;5111313;28;19920;-73
2022/06/27 06:03:23;;;;;;;;;;;18.30;99.90;;;;;;5111690;28;20892;-73
2022/06/27 06:05:49;;;;;;;;;;;18.30;99.90;;;;;;5110677;27;19926;-74
2022/06/27 06:08:15;;;;;;;;;;;18.40;99.90;;;;;;5110735;27;20084;-74
2022/06/27 06:10:41;;;;;;;;;;;18.50;99.90;;;;;;5111677;27;20361;-74
2022/06/27 06:13:07;;;;;;;;;;;18.50;99.90;;;;;;5111959;27;19924;-74
2022/06/27 06:15:33;;;;;;;;;;;18.60;99.90;;;;;;5112460;27;19926;-73
2022/06/27 06:18:01;;;;;;;;;;;18.60;99.90;;;;;;5111545;28;19919;-74
2022/06/27 06:20:27;;;;;;;;;;;18.50;99.90;;;;;;5113169;27;19955;-73
2022/06/27 06:22:53;;;;;;;;;;;18.60;99.90;;;;;;5111769;27;19923;-74
2022/06/27 06:25:19;;;;;;;;;;;18.60;99.90;;;;;;5113219;27;19934;-73
2022/06/27 06:27:45;;;;;;;;;;;18.60;99.90;;;;;;5111590;28;20427;-74
2022/06/27 06:30:10;;;;;;;;;;;18.60;99.90;;;;;;5111410;27;20026;-73
2022/06/27 06:32:36;;;;;;;;;;;18.60;99.90;;;;;;5111935;27;20015;-73
2022/06/27 06:35:02;;;;;;;;;;;18.60;99.90;;;;;;5124026;27;19993;-73
2022/06/27 06:37:29;;;;;;;;;;;18.50;99.90;;;;;;5111335;28;19926;-74
2022/06/27 06:39:54;;;;;;;;;;;18.50;99.90;;;;;;5112240;27;19923;-73
2022/06/27 06:42:20;;;;;;;;;;;18.40;99.90;;;;;;5130689;27;19919;-74
2022/06/27 06:44:46;;;;;;;;;;;18.40;99.90;;;;;;5129442;27;20031;-73
2022/06/27 06:47:14;;;;;;;;;;;18.30;99.90;;;;;;5119008;27;19930;-73
2022/06/27 06:49:41;;;;;;;;;;;18.30;99.90;;;;;;5116832;27;19930;-73
2022/06/27 06:52:06;;;;;;;;;;;18.20;99.90;;;;;;5114728;27;20385;-73
2022/06/27 06:54:32;;;;;;;;;;;18.20;99.90;;;;;;5113190;27;19935;-73
2022/06/27 06:56:58;;;;;;;;;;;18.20;99.90;;;;;;5117036;27;19993;-74
2022/06/27 06:59:24;;;;;;;;;;;18.30;99.90;;;;;;5126601;27;19923;-74
2022/06/27 07:01:50;;;;;;;;;;;18.30;99.90;;;;;;5110859;28;19919;-74
2022/06/27 07:04:16;;;;;;;;;;;18.20;99.90;;;;;;5110235;28;20404;-74
2022/06/27 07:06:43;;;;;;;;;;;18.20;99.90;;;;;;5111030;27;20292;-74
2022/06/27 07:09:08;;;;;;;;;;;18.20;99.90;;;;;;5109529;28;20351;-73
2022/06/27 07:11:37;;;;;;;;;;;18.20;99.90;;;;;;5110828;28;19920;-73
2022/06/27 07:14:03;;;;;;;;;;;18.20;99.90;;;;;;5110345;28;19967;-73
2022/06/27 07:16:29;;;;;;;;;;;18.30;99.90;;;;;;5108696;27;19970;-74
2022/06/27 07:18:55;;;;;;;;;;;18.30;99.90;;;;;;5111062;28;19927;-73
2022/06/27 07:21:21;;;;;;;;;;;18.20;99.90;;;;;;5110381;28;20010;-74
2022/06/27 07:23:48;;;;;;;;;;;18.20;99.90;;;;;;5109359;27;20002;-74
2022/06/27 07:26:14;;;;;;;;;;;18.20;99.90;;;;;;5110151;27;20323;-73
2022/06/27 07:28:40;;;;;;;;;;;18.20;99.90;;;;;;5117439;27;20458;-74
2022/06/27 07:31:08;;;;;;;;;;;18.20;99.90;;;;;;5129795;27;19923;-74
2022/06/27 07:33:41;;;;;;;;;;;18.10;99.90;;;;;;5109593;28;19979;-74
2022/06/27 07:36:08;;;;;;;;;;;18.10;99.90;;;;;;5124475;28;19919;-73
2022/06/27 07:38:38;;;;;;;;;;;18.10;99.90;;;;;;5130115;27;19970;-74
2022/06/27 07:41:07;;;;;;;;;;;18.20;99.90;;;;;;5129938;27;19919;-73
2022/06/27 07:43:33;;;;;;;;;;;18.30;99.90;;;;;;5129496;28;19919;-74
2022/06/27 07:46:00;;;;;;;;;;;18.30;99.90;;;;;;5128237;28;20349;-74
2022/06/27 07:48:25;;;;;;;;;;;18.30;99.90;;;;;;5130348;27;19919;-73
2022/06/27 07:50:51;;;;;;;;;;;18.30;99.90;;;;;;5112920;28;19926;-74
2022/06/27 07:53:19;;;;;;;;;;;18.40;99.90;;;;;;5108772;28;19973;-73
2022/06/27 07:55:46;;;;;;;;;;;18.40;99.90;;;;;;5112538;28;19971;-74
2022/06/27 07:58:14;;;;;;;;;;;18.30;99.90;;;;;;5120323;27;19937;-74
2022/06/27 08:00:41;;;;;;;;;;;18.40;99.90;;;;;;5109430;28;19928;-74
2022/06/27 08:05:53;;;;;;;;;;;18.40;99.90;;;;;;5123305;28;20351;-74
2022/06/27 08:08:21;;;;;;;;;;;18.40;99.90;;;;;;5122403;28;20010;-74
2022/06/27 08:10:47;;;;;;;;;;;18.50;99.90;;;;;;5122277;28;19924;-73
2022/06/27 08:13:13;;;;;;;;;;;18.50;99.90;;;;;;5122750;28;19926;-73
2022/06/27 08:15:39;;;;;;;;;;;18.50;99.90;;;;;;5116212;27;19919;-74
2022/06/27 08:18:07;;;;;;;;;;;18.60;99.90;;;;;;5129633;27;19920;-74
2022/06/27 08:20:34;;;;;;;;;;;18.60;99.90;;;;;;5116158;28;19923;-73
2022/06/27 08:23:00;;;;;;;;;;;18.60;99.90;;;;;;5129660;27;19926;-74
2022/06/27 08:25:25;;;;;;;;;;;18.60;99.90;;;;;;5123068;28;19923;-73
2022/06/27 08:27:51;;;;;;;;;;;18.60;99.90;;;;;;5122694;27;19923;-74
2022/06/27 08:30:16;;;;;;;;;;;18.60;99.90;;;;;;5126707;27;20390;-73
2022/06/27 08:32:42;;;;;;;;;;;18.60;99.90;;;;;;5126101;27;19920;-73
2022/06/27 08:35:08;;;;;;;;;;;18.60;99.90;;;;;;5119645;27;19958;-73
2022/06/27 08:37:33;;;;;;;;;;;18.60;99.90;;;;;;5131459;27;20014;-74
2022/06/27 08:39:59;;;;;;;;;;;18.60;99.90;;;;;;5118786;27;20049;-74
2022/06/27 08:42:25;;;;;;;;;;;18.50;99.90;;;;;;5132365;27;19919;-73
2022/06/27 08:44:51;;;;;;;;;;;18.50;99.90;;;;;;5131841;27;20434;-73
2022/06/27 08:47:16;;;;;;;;;;;18.60;99.90;;;;;;5118717;27;19963;-74
2022/06/27 08:49:43;;;;;;;;;;;18.60;99.90;;;;;;5113727;27;19920;-73
2022/06/27 08:52:09;;;;;;;;;;;18.60;99.90;;;;;;5125418;27;19966;-73
2022/06/27 08:54:36;;;;;;;;;;;18.70;99.90;;;;;;5118838;27;20419;-74
2022/06/27 08:57:01;;;;;;;;;;;18.80;99.90;;;;;;5131396;27;19970;-73
2022/06/27 08:59:28;;;;;;;;;;;18.90;99.90;;;;;;5112762;28;19963;-73
2022/06/27 09:01:53;;;;;;;;;;;18.90;99.90;;;;;;5126061;27;19927;-73
2022/06/27 09:04:20;;;;;;;;;;;18.90;99.90;;;;;;5130899;27;19928;-73
2022/06/27 09:06:45;;;;;;;;;;;18.90;99.90;;;;;;5120516;27;19920;-74
2022/06/27 09:09:13;;;;;;;;;;;18.90;99.90;;;;;;5112978;27;19969;-73
2022/06/27 09:11:41;;;;;;;;;;;19.00;99.90;;;;;;5112402;28;19920;-73
2022/06/27 09:14:28;;;;;;;;;;;18.90;99.90;;;;;;5126183;27;20317;-73
2022/06/27 09:16:57;;;;;;;;;;;18.90;99.90;;;;;;5124500;27;20372;-74
2022/06/27 09:19:43;;;;;;;;;;;18.90;99.90;;;;;;5112654;27;19926;-73
2022/06/27 09:22:09;;;;;;;;;;;18.90;99.90;;;;;;5112222;27;19927;-73
2022/06/27 09:24:35;;;;;;;;;;;18.80;99.90;;;;;;5112639;28;19926;-73
2022/06/27 09:27:03;;;;;;;;;;;18.80;99.90;;;;;;5112290;27;19946;-73
2022/06/27 09:29:29;;;;;;;;;;;18.90;99.90;;;;;;5125792;27;19967;-73
2022/06/27 09:31:55;;;;;;;;;;;18.90;99.90;;;;;;5111411;27;19931;-73
2022/06/27 09:34:24;;;;;;;;;;;18.90;99.90;;;;;;5111821;28;19924;-74
2022/06/27 09:37:03;;;;;;;;;;;18.90;99.90;;;;;;5111161;27;20437;-73
2022/06/27 09:39:31;;;;;;;;;;;18.90;99.90;;;;;;5112524;27;19919;-73
2022/06/27 09:42:01;;;;;;;;;;;18.90;99.90;;;;;;5112356;27;19927;-73
2022/06/27 09:44:29;;;;;;;;;;;18.90;99.90;;;;;;5113262;27;20368;-73
2022/06/27 09:46:58;;;;;;;;;;;18.90;99.90;;;;;;5112511;27;19945;-73
2022/06/27 09:49:26;;;;;;;;;;;18.80;99.90;;;;;;5112203;27;20006;-73
2022/06/27 09:51:53;;;;;;;;;;;18.80;99.90;;;;;;5111449;28;19981;-73
2022/06/27 09:54:22;;;;;;;;;;;18.80;99.90;;;;;;5111624;28;19950;-73
2022/06/27 09:56:50;;;;;;;;;;;18.80;99.90;;;;;;5111573;28;19919;-73
2022/06/27 09:59:16;;;;;;;;;;;18.80;99.90;;;;;;5111358;28;19934;-73
2022/06/27 10:01:43;;;;;;;;;;;18.80;99.90;;;;;;5111065;28;19967;-74
2022/06/27 10:04:09;;;;;;;;;;;18.70;99.90;;;;;;5111508;28;19919;-73
2022/06/27 10:06:36;;;;;;;;;;;18.70;99.90;;;;;;5111420;28;19920;-73
2022/06/27 10:09:04;;;;;;;;;;;18.70;99.90;;;;;;5111307;28;19924;-73
2022/06/27 10:11:29;;;;;;;;;;;18.80;99.90;;;;;;5111654;28;20022;-73
2022/06/27 10:14:10;;;;;;;;;;;18.80;99.90;;;;;;5116455;27;20436;-73
2022/06/27 10:16:49;;;;;;;;;;;18.90;99.90;;;;;;5131151;27;20365;-73
2022/06/27 10:19:14;;;;;;;;;;;18.90;99.90;;;;;;5111239;27;19972;-74
2022/06/27 10:21:41;;;;;;;;;;;18.90;99.90;;;;;;5111205;27;19920;-73
2022/06/27 10:24:26;;;;;;;;;;;18.90;99.90;;;;;;5119971;27;19923;-72
2022/06/27 10:27:02;;;;;;;;;;;18.80;99.90;;;;;;5131418;27;19919;-73
2022/06/27 10:29:32;;;;;;;;;;;18.80;99.90;;;;;;5118635;27;20013;-73
2022/06/27 10:31:58;;;;;;;;;;;18.80;99.90;;;;;;5117283;27;19919;-73
2022/06/27 10:34:46;;;;;;;;;;;18.70;99.90;;;;;;5131773;27;19946;-73
2022/06/27 10:37:21;;;;;;;;;;;18.70;99.90;;;;;;5111165;28;20295;-73
2022/06/27 10:39:47;;;;;;;;;;;18.70;99.90;;;;;;5111468;27;19958;-73
2022/06/27 10:42:31;;;;;;;;;;;18.70;99.90;;;;;;5109658;28;19955;-74
2022/06/27 10:45:20;;;;;;;;;;;18.70;99.90;;;;;;5110910;27;19924;-73
2022/06/27 10:47:48;;;;;;;;;;;18.70;99.90;;;;;;5100504;27;20348;-73
2022/06/27 10:50:15;;;;;;;;;;;18.70;99.90;;;;;;5110896;27;19920;-73
2022/06/27 10:52:41;;;;;;;;;;;18.70;99.90;;;;;;5113811;27;19995;-73
2022/06/27 10:55:23;;;;;;;;;;;18.70;99.90;;;;;;5131149;27;20389;-73
2022/06/27 10:57:49;;;;;;;;;;;18.70;99.90;;;;;;5129858;27;19984;-74
2022/06/27 11:00:34;;;;;;;;;;;18.70;99.90;;;;;;5118511;27;20775;-73
2022/06/27 11:03:00;;;;;;;;;;;18.70;99.90;;;;;;5118961;27;19959;-73
2022/06/27 11:05:26;;;;;;;;;;;18.70;99.90;;;;;;5129301;27;19985;-74
2022/06/27 11:07:55;;;;;;;;;;;18.80;99.90;;;;;;5126543;27;19920;-74
2022/06/27 11:10:21;;;;;;;;;;;18.80;99.90;;;;;;5129508;27;19942;-74
2022/06/27 11:12:47;;;;;;;;;;;18.80;99.90;;;;;;5111965;27;20013;-74
2022/06/27 11:15:12;;;;;;;;;;;18.80;99.90;;;;;;5118487;27;20062;-74
2022/06/27 11:17:44;;;;;;;;;;;18.80;99.90;;;;;;5110622;27;19927;-74
2022/06/27 11:20:29;;;;;;;10.88;9.15;;;18.80;99.90;;;;;;5110527;27;20304;-74
2022/06/27 11:22:58;;;;;;;;;;;18.80;99.90;;;;;;5123837;27;20047;-74
2022/06/27 11:25:27;;;;;;;;;;;18.70;99.90;;;;;;5109700;27;19972;-74
2022/06/27 11:27:54;;;;;;;;;;;18.80;99.90;;;;;;5109976;28;19967;-74
2022/06/27 11:33:30;;;;;;;;;;;18.80;99.90;;;;;;5122044;27;19926;-73
2022/06/27 11:35:56;;;;;;;;;;;18.80;99.90;;;;;;5110798;27;20508;-74
2022/06/27 11:38:23;;;;;;;;;;;18.80;99.90;;;;;;5115834;28;19958;-74
2022/06/27 11:40:58;;;;;;;;;;;18.80;99.90;;;;;;5130539;27;19920;-74
2022/06/27 11:43:44;;;;;;;;;;;18.80;99.90;;;;;;5099087;28;20377;-73
2022/06/27 11:46:20;;;;;;;;;;;18.80;99.90;;;;;;5113736;28;19927;-75
2022/06/27 11:48:56;;;;;;;;;;;18.80;99.90;;;;;;5110158;28;19920;-74
2022/06/27 11:51:26;;;;;;;;;;;18.80;99.90;;;;;;5110839;28;19924;-74
2022/06/27 11:53:53;;;;;;;;;;;18.80;99.90;;;;;;5111063;28;19928;-74
2022/06/27 11:56:25;;;;;;;;;;;18.90;99.90;;;;;;5110637;28;20006;-75
2022/06/27 11:58:52;;;;;;;;;;;18.90;99.90;;;;;;5109988;28;19929;-73
2022/06/27 12:01:18;;;;;;;;;;;19.00;99.90;;;;;;5109472;28;19927;-74
2022/06/27 12:04:13;;;;;;;10.60;8.30;;;19.00;99.90;;;;;;5111921;27;19919;-74
2022/06/27 12:06:44;;;;;;;12.23;11.02;;;19.10;99.90;;;;;;5112086;27;20897;-73
2022/06/27 12:09:10;;;;;;;11.30;9.77;;;19.20;99.90;;;;;;5112416;27;20039;-74
2022/06/27 12:11:36;;;;;;;11.20;10.10;;;19.30;99.90;;;;;;5112162;28;20461;-74
2022/06/27 12:14:02;;;;;;;9.02;8.07;;;19.40;99.90;;;;;;5127032;27;20032;-74
2022/06/27 12:16:28;;;;;;;8.13;6.55;;;19.50;99.90;;;;;;5124857;27;20047;-73
2022/06/27 12:18:53;;;;;;;8.50;6.82;;;19.60;99.90;;;;;;5128693;27;20052;-74
2022/06/27 12:21:22;;;;;;;8.73;7.15;;;19.60;99.90;;;;;;5112941;28;20039;-73
2022/06/27 12:23:48;;;;;;;7.47;6.75;;;19.60;99.90;;;;;;5111998;27;20554;-74
2022/06/27 12:26:14;;;;;;;6.95;5.72;;;19.60;99.90;;;;;;5113091;28;20131;-73
2022/06/27 12:28:41;;;;;;;7.75;6.97;;;19.60;99.90;;;;;;5111856;28;20400;-74
2022/06/27 12:31:07;;;;;;;7.78;6.90;;;19.60;99.90;;;;;;5112274;27;20410;-74
2022/06/27 12:33:33;;;;;;;8.68;7.80;;;19.50;99.90;;;;;;5112083;28;20392;-74
2022/06/27 12:35:59;;;;;;;8.80;8.00;;;19.50;99.90;;;;;;5111941;27;20403;-74
2022/06/27 12:38:25;;;;;;;9.40;8.50;;;19.50;99.90;;;;;;5112512;27;20396;-73
2022/06/27 12:41:11;;;;;;;8.88;7.00;;;19.50;99.90;;;;;;5113131;27;20058;-73
2022/06/27 12:43:40;;;;;;;7.70;6.15;;;19.60;99.90;;;;;;5111808;28;20112;-73
2022/06/27 12:46:06;;;;;;;8.25;6.53;;;19.60;99.90;;;;;;5112411;28;20559;-73
2022/06/27 12:48:32;;;;;;;7.15;6.00;;;19.60;99.90;;;;;;5112834;27;20106;-74
2022/06/27 12:50:59;;;;;;;8.60;6.40;;;19.60;99.90;;;;;;5112899;27;20591;-73
2022/06/27 12:53:25;;;;;;;8.05;6.05;;;19.60;99.90;;;;;;5113484;28;20084;-74
2022/06/27 12:55:54;;;;;;;7.07;5.32;;;19.70;99.90;;;;;;5113502;27;20122;-74
2022/06/27 12:58:21;;;;;;;5.53;4.90;;;19.70;99.90;;;;;;5112219;28;20036;-74
2022/06/27 13:00:47;;;;;;;5.95;3.90;;;19.70;99.90;;;;;;5112876;27;20059;-74
2022/06/27 13:03:13;;;;;;;;;;;19.70;99.90;;;;;;5112757;28;20056;-74
2022/06/27 13:05:38;;;;;;;;;;;19.70;99.90;;;;;;5113270;27;19927;-74
2022/06/27 13:08:05;;;;;;;5.57;2.17;;;19.70;99.90;;;;;;5112179;28;20377;-74
2022/06/27 13:10:31;;;;;;;3.30;2.03;;;19.60;99.90;;;;;;5110754;28;20108;-73
2022/06/27 13:12:57;;;;;;;3.85;2.20;;;19.50;99.90;;;;;;5121231;27;20035;-73
2022/06/27 13:15:22;;;;;;;2.45;1.52;;;19.50;99.90;;;;;;5113952;27;20110;-74
2022/06/27 13:17:48;;;;;;;3.22;1.88;;;19.50;99.90;;;;;;5112208;28;20127;-73
2022/06/27 13:20:14;;;;;;;4.38;2.05;;;19.50;99.90;;;;;;5110692;28;20079;-73
2022/06/27 13:22:39;;;;;;;2.13;1.70;;;19.50;99.90;;;;;;5111836;28;20042;-73
2022/06/27 13:25:06;;;;;;;4.05;1.83;;;19.40;99.90;;;;;;5125478;27;20035;-74
2022/06/27 13:27:31;;;;;;;2.45;1.80;;;19.40;99.90;;;;;;5111666;27;20048;-74
2022/06/27 13:29:57;;;;;;;3.60;1.77;;;19.40;99.90;;;;;;5111066;27;20048;-73
2022/06/27 13:32:23;;;;;;;2.67;1.98;;;19.40;99.90;;;;;;5111470;28;20036;-73
2022/06/27 13:34:48;;;;;;;4.03;1.90;;;19.40;99.90;;;;;;5112130;27;20082;-74
2022/06/27 13:37:15;;;;;;;3.40;1.65;;;19.40;99.90;;;;;;5112034;28;20169;-73
2022/06/27 13:39:41;;;;;;;1.95;1.55;;;19.40;99.90;;;;;;5112388;27;20047;-73
2022/06/27 13:42:06;;;;;;;2.95;1.52;;;19.40;99.90;;;;;;5112051;27;20040;-73
2022/06/27 13:44:33;;;;;;;2.13;1.70;;;19.40;99.90;;;;;;5111917;27;20379;-73
2022/06/27 13:47:00;;;;;;;3.58;1.38;;;19.40;99.90;;;;;;5111214;28;20512;-74
2022/06/27 13:49:25;;;;;;;3.60;1.30;;;19.30;99.90;;;;;;5111598;27;20036;-74
2022/06/27 13:51:51;;;;;;;2.22;1.00;;;19.30;99.90;;;;;;5111794;27;20035;-73
2022/06/27 13:54:17;;;;;;;2.55;1.63;;;19.30;99.90;;;;;;5112119;27;20061;-74
2022/06/27 13:56:43;;;;;;;2.13;1.33;;;19.30;99.90;;;;;;5111082;28;20071;-74
2022/06/27 13:59:10;;;;;;;3.15;1.50;;;19.20;99.90;;;;;;5111299;27;20050;-73
2022/06/27 14:01:36;;;;;;;2.75;1.60;;;19.20;99.90;;;;;;5111592;27;20074;-74
2022/06/27 14:04:02;;;;;;;2.40;1.50;;;19.10;99.90;;;;;;5092564;28;20486;-74
2022/06/27 14:09:12;;;;;;;2.97;1.40;;;19.10;99.90;;;;;;5110648;28;20470;-73
2022/06/27 14:11:38;;;;;;;2.35;1.38;;;19.10;99.90;;;;;;5111411;28;20040;-73